createdAt,value
2023-06-18T00:02:01.733Z,5.20
2023-06-18T00:04:28.980Z,4.75
2023-06-18T00:06:56.468Z,5.22
2023-06-18T00:09:24.406Z,4.95
2023-06-18T00:11:52.023Z,4.78
2023-06-18T00:14:19.648Z,5.55
2023-06-18T00:16:47.201Z,4.47
2023-06-18T00:19:15.638Z,5.45
2023-06-18T00:21:42.580Z,5.57
2023-06-18T00:24:09.548Z,5.18
2023-06-18T00:26:37.038Z,5.25
2023-06-18T00:29:03.998Z,5.45
2023-06-18T00:31:33.880Z,5.57
2023-06-18T00:34:06.419Z,5.40
2023-06-18T00:36:34.817Z,5.62
2023-06-18T00:39:04.228Z,4.75
2023-06-18T00:41:34.164Z,4.68
2023-06-18T00:44:01.072Z,5.05
2023-06-18T00:46:32.067Z,5.68
2023-06-18T00:48:59.890Z,5.43
2023-06-18T00:51:27.895Z,6.05
2023-06-18T00:53:57.633Z,5.78
2023-06-18T00:56:26.756Z,5.87
2023-06-18T00:58:53.808Z,5.82
2023-06-18T01:01:21.514Z,5.75
2023-06-18T01:03:49.905Z,5.93
2023-06-18T01:06:18.888Z,7.62
2023-06-18T01:08:50.410Z,6.22
2023-06-18T01:11:21.461Z,6.82
2023-06-18T01:13:49.241Z,5.75
2023-06-18T01:16:17.774Z,5.47
2023-06-18T01:18:51.798Z,6.35
2023-06-18T01:21:22.631Z,5.35
2023-06-18T01:24:20.390Z,5.30
2023-06-18T01:26:48.008Z,5.10
2023-06-18T01:29:16.080Z,6.35
2023-06-18T01:31:45.940Z,5.45
2023-06-18T01:34:14.095Z,6.47
2023-06-18T01:37:17.998Z,5.95
2023-06-18T01:40:21.773Z,5.43
2023-06-18T01:43:05.227Z,5.60
2023-06-18T01:45:41.734Z,6.05
2023-06-18T01:48:10.222Z,6.78
2023-06-18T01:50:40.077Z,5.85
2023-06-18T01:53:09.164Z,6.47
2023-06-18T01:55:39.436Z,4.90
2023-06-18T01:58:06.363Z,5.15
2023-06-18T02:00:33.913Z,5.68
2023-06-18T02:03:01.127Z,4.87
2023-06-18T02:05:28.287Z,5.25
2023-06-18T02:07:55.193Z,5.78
2023-06-18T02:10:22.443Z,5.20
2023-06-18T02:12:49.658Z,5.43
2023-06-18T02:15:16.726Z,5.30
2023-06-18T02:17:44.690Z,5.10
2023-06-18T02:20:12.199Z,5.28
2023-06-18T02:22:39.839Z,5.25
2023-06-18T02:25:07.458Z,5.90
2023-06-18T02:27:34.410Z,5.62
2023-06-18T02:30:05.980Z,5.00
2023-06-18T02:32:37.929Z,5.35
2023-06-18T02:35:05.542Z,5.15
2023-06-18T02:37:32.623Z,5.40
2023-06-18T02:39:59.506Z,4.60
2023-06-18T02:42:26.347Z,5.85
2023-06-18T02:44:53.923Z,5.70
2023-06-18T02:47:20.903Z,5.90
2023-06-18T02:49:47.730Z,5.28
2023-06-18T02:52:14.687Z,4.22
2023-06-18T02:54:43.237Z,4.95
2023-06-18T02:57:10.316Z,4.68
2023-06-18T02:59:37.169Z,4.90
2023-06-18T03:02:05.690Z,5.43
2023-06-18T03:04:32.619Z,5.85
2023-06-18T03:07:00.821Z,5.43
2023-06-18T03:09:29.068Z,4.68
2023-06-18T03:11:56.025Z,5.03
2023-06-18T03:14:23.590Z,5.20
2023-06-18T03:16:50.498Z,4.97
2023-06-18T03:19:17.453Z,4.60
2023-06-18T03:21:44.992Z,5.03
2023-06-18T03:24:12.851Z,4.80
2023-06-18T03:26:39.822Z,4.78
2023-06-18T03:29:07.144Z,5.03
2023-06-18T03:31:34.082Z,4.45
2023-06-18T03:34:04.334Z,4.80
2023-06-18T03:36:32.291Z,4.82
2023-06-18T03:38:59.238Z,4.43
2023-06-18T03:41:27.172Z,4.53
2023-06-18T03:43:54.037Z,4.40
2023-06-18T03:46:21.097Z,4.70
2023-06-18T03:48:48.112Z,4.95
2023-06-18T03:51:14.971Z,5.18
2023-06-18T03:53:41.916Z,5.80
2023-06-18T03:56:09.685Z,5.07
2023-06-18T03:58:36.849Z,5.18
2023-06-18T04:01:03.818Z,4.28
2023-06-18T04:03:30.924Z,4.47
2023-06-18T04:05:57.973Z,5.30
2023-06-18T04:08:24.903Z,5.85
2023-06-18T04:10:51.837Z,6.00
2023-06-18T04:13:19.657Z,5.30
2023-06-18T04:15:46.934Z,5.10
2023-06-18T04:18:14.635Z,5.12
2023-06-18T04:20:41.582Z,5.22
2023-06-18T04:23:09.774Z,4.97
2023-06-18T04:25:36.617Z,5.28
2023-06-18T04:28:03.585Z,6.15
2023-06-18T04:30:30.591Z,6.00
2023-06-18T04:32:57.697Z,5.12
2023-06-18T04:35:24.688Z,4.97
2023-06-18T04:37:51.650Z,5.72
2023-06-18T04:40:20.009Z,4.20
2023-06-18T04:42:47.977Z,4.72
2023-06-18T04:45:14.886Z,4.65
2023-06-18T04:47:42.101Z,5.22
2023-06-18T04:50:09.948Z,4.97
2023-06-18T04:52:36.939Z,5.07
2023-06-18T04:55:04.368Z,5.60
2023-06-18T04:57:31.273Z,5.62
2023-06-18T04:59:58.321Z,5.53
2023-06-18T05:02:26.283Z,4.62
2023-06-18T05:04:53.549Z,5.07
2023-06-18T05:07:20.484Z,4.72
2023-06-18T05:09:47.404Z,4.55
2023-06-18T05:12:15.790Z,4.70
2023-06-18T05:14:42.702Z,4.90
2023-06-18T05:17:09.740Z,4.10
2023-06-18T05:19:36.649Z,4.50
2023-06-18T05:22:03.634Z,4.03
2023-06-18T05:24:30.529Z,4.30
2023-06-18T05:26:57.494Z,4.82
2023-06-18T05:29:24.432Z,5.43
2023-06-18T05:31:51.410Z,4.28
2023-06-18T05:34:18.286Z,4.87
2023-06-18T05:36:45.221Z,4.55
2023-06-18T05:39:12.084Z,4.55
2023-06-18T05:41:38.979Z,5.45
2023-06-18T05:44:05.849Z,4.45
2023-06-18T05:46:32.894Z,4.87
2023-06-18T05:48:59.904Z,4.50
2023-06-18T05:51:27.111Z,4.43
2023-06-18T05:53:54.229Z,4.47
2023-06-18T05:56:21.127Z,5.18
2023-06-18T05:58:48.064Z,3.92
2023-06-18T06:01:15.662Z,4.10
2023-06-18T06:03:42.677Z,4.22
2023-06-18T06:06:10.147Z,4.40
2023-06-18T06:08:37.785Z,4.30
2023-06-18T06:11:04.739Z,4.72
2023-06-18T06:13:31.662Z,4.40
2023-06-18T06:15:58.595Z,5.18
2023-06-18T06:18:25.582Z,4.55
2023-06-18T06:20:52.550Z,4.57
2023-06-18T06:23:19.435Z,4.10
2023-06-18T06:25:46.928Z,4.65
2023-06-18T06:28:13.984Z,4.53
2023-06-18T06:30:40.863Z,4.53
2023-06-18T06:33:07.823Z,4.65
2023-06-18T06:35:34.861Z,4.78
2023-06-18T06:38:01.767Z,4.10
2023-06-18T06:40:31.572Z,4.55
2023-06-18T06:42:58.721Z,3.87
2023-06-18T06:45:26.491Z,4.50
2023-06-18T06:47:53.475Z,4.53
2023-06-18T06:50:21.262Z,5.85
2023-06-18T06:52:48.379Z,4.00
2023-06-18T06:55:15.435Z,4.12
2023-06-18T06:57:42.330Z,4.65
2023-06-18T07:00:12.219Z,4.68
2023-06-18T07:02:39.369Z,4.45
2023-06-18T07:05:08.208Z,4.75
2023-06-18T07:07:39.523Z,4.65
2023-06-18T07:10:26.580Z,4.62
2023-06-18T07:12:53.631Z,4.90
2023-06-18T07:15:20.753Z,4.80
2023-06-18T07:17:47.658Z,5.03
2023-06-18T07:20:14.653Z,4.90
2023-06-18T07:22:41.837Z,5.12
2023-06-18T07:25:09.178Z,4.30
2023-06-18T07:27:36.453Z,4.30
2023-06-18T07:30:03.819Z,4.55
2023-06-18T07:32:30.760Z,3.72
2023-06-18T07:34:57.680Z,4.03
2023-06-18T07:37:24.557Z,3.67
2023-06-18T07:39:51.502Z,4.25
2023-06-18T07:42:18.461Z,3.95
2023-06-18T07:44:45.313Z,4.10
2023-06-18T07:47:12.241Z,4.15
2023-06-18T07:49:39.159Z,3.85
2023-06-18T07:52:06.562Z,4.32
2023-06-18T07:54:35.990Z,4.60
2023-06-18T07:57:03.692Z,4.60
2023-06-18T07:59:30.556Z,4.22
2023-06-18T08:01:57.798Z,4.43
2023-06-18T08:04:25.064Z,4.87
2023-06-18T08:06:52.193Z,3.83
2023-06-18T08:09:19.223Z,4.28
2023-06-18T08:11:46.331Z,3.40
2023-06-18T08:14:13.249Z,3.47
2023-06-18T08:16:40.654Z,3.60
2023-06-18T08:19:07.678Z,3.17
2023-06-18T08:21:34.570Z,3.92
2023-06-18T08:24:01.496Z,4.32
2023-06-18T08:26:28.444Z,4.10
2023-06-18T08:28:55.534Z,3.78
2023-06-18T08:31:23.326Z,3.75
2023-06-18T08:33:51.548Z,3.22
2023-06-18T08:36:21.630Z,3.63
2023-06-18T08:38:49.038Z,3.78
2023-06-18T08:41:16.348Z,3.70
2023-06-18T08:43:43.353Z,3.87
2023-06-18T08:46:11.746Z,3.75
2023-06-18T08:48:45.105Z,3.83
2023-06-18T08:51:13.091Z,3.87
2023-06-18T08:53:52.372Z,3.80
2023-06-18T08:56:23.009Z,3.83
2023-06-18T08:58:52.338Z,3.53
2023-06-18T09:01:22.241Z,4.07
2023-06-18T09:03:50.985Z,4.07
2023-06-18T09:06:18.684Z,3.85
2023-06-18T09:08:47.946Z,3.90
2023-06-18T09:11:14.997Z,3.90
2023-06-18T09:13:44.152Z,4.00
2023-06-18T09:16:12.133Z,3.90
2023-06-18T09:18:39.274Z,4.27
2023-06-18T09:21:06.938Z,3.90
2023-06-18T09:23:34.105Z,4.20
2023-06-18T09:26:02.314Z,4.37
2023-06-18T09:28:29.572Z,4.97
2023-06-18T09:31:02.540Z,3.75
2023-06-18T09:33:37.788Z,4.25
2023-06-18T09:36:09.964Z,4.53
2023-06-18T09:38:39.445Z,4.07
2023-06-18T09:41:13.491Z,4.03
2023-06-18T09:43:42.414Z,3.90
2023-06-18T09:46:10.013Z,4.30
2023-06-18T09:48:38.946Z,4.47
2023-06-18T09:53:34.088Z,3.95
2023-06-18T09:56:14.305Z,4.50
2023-06-18T09:58:47.458Z,5.22
2023-06-18T10:01:15.716Z,4.57
2023-06-18T10:03:43.441Z,4.50
2023-06-18T10:06:17.588Z,4.63
2023-06-18T10:08:53.961Z,4.80
2023-06-18T10:11:23.019Z,4.40
2023-06-18T10:13:59.683Z,4.72
2023-06-18T10:16:30.233Z,4.55
2023-06-18T10:19:12.510Z,4.50
2023-06-18T10:22:02.118Z,4.70
2023-06-18T10:24:42.887Z,5.10
2023-06-18T10:27:09.863Z,5.05
2023-06-18T10:29:36.703Z,4.40
2023-06-18T10:32:05.862Z,5.05
2023-06-18T10:34:37.886Z,5.20
2023-06-18T10:37:05.624Z,4.82
2023-06-18T10:39:35.405Z,4.82
2023-06-18T10:42:13.741Z,4.55
2023-06-18T10:44:51.741Z,4.87
2023-06-18T10:47:30.065Z,4.62
2023-06-18T10:50:09.317Z,4.55
2023-06-18T10:52:37.162Z,4.72
2023-06-18T10:55:14.653Z,4.50
2023-06-18T10:57:46.137Z,5.43
2023-06-18T11:00:16.436Z,4.95
2023-06-18T11:02:44.121Z,4.80
2023-06-18T11:05:43.977Z,4.53
2023-06-18T11:08:13.202Z,5.07
2023-06-18T11:10:50.047Z,5.20
2023-06-18T11:13:18.240Z,5.03
2023-06-18T11:15:59.354Z,5.60
2023-06-18T11:18:28.443Z,4.82
2023-06-18T11:20:57.542Z,5.12
2023-06-18T11:23:26.160Z,5.47
2023-06-18T11:28:22.280Z,5.40
2023-06-18T11:30:54.527Z,5.37
2023-06-18T11:33:26.449Z,4.70
2023-06-18T11:35:54.818Z,5.30
2023-06-18T11:38:23.648Z,4.65
2023-06-18T11:40:55.316Z,5.30
2023-06-18T11:43:22.630Z,5.07
2023-06-18T11:45:55.505Z,5.55
2023-06-18T11:48:22.957Z,4.97
2023-06-18T11:50:56.396Z,5.57
2023-06-18T11:53:23.983Z,5.43
2023-06-18T11:55:54.778Z,4.97
2023-06-18T11:58:22.427Z,4.90
2023-06-18T12:00:49.936Z,4.40
2023-06-18T12:03:16.982Z,5.30
2023-06-18T12:05:43.890Z,5.30
2023-06-18T12:08:10.812Z,5.40
2023-06-18T12:10:39.736Z,5.60
2023-06-18T12:16:03.114Z,5.28
2023-06-18T12:18:35.509Z,4.72
2023-06-18T12:21:04.174Z,4.50
2023-06-18T12:23:32.008Z,5.10
2023-06-18T12:25:59.751Z,5.18
2023-06-18T12:28:26.751Z,5.25
2023-06-18T12:30:53.694Z,5.30
2023-06-18T12:33:20.863Z,4.50
2023-06-18T12:35:52.156Z,6.15
2023-06-18T12:38:19.842Z,4.87
2023-06-18T12:40:56.715Z,5.15
2023-06-18T12:43:27.096Z,4.82
2023-06-18T12:45:54.287Z,5.05
2023-06-18T12:48:29.578Z,5.37
2023-06-18T12:50:57.239Z,5.57
2023-06-18T12:53:26.497Z,5.12
2023-06-18T12:55:58.062Z,5.00
2023-06-18T12:58:30.154Z,5.43
2023-06-18T13:01:00.695Z,5.30
2023-06-18T13:03:28.651Z,5.50
2023-06-18T13:05:57.462Z,5.07
2023-06-18T13:08:24.477Z,5.43
2023-06-18T13:10:53.466Z,5.03
2023-06-18T13:13:20.970Z,5.62
2023-06-18T13:15:49.611Z,5.25
2023-06-18T13:18:19.707Z,5.40
2023-06-18T13:20:48.966Z,5.25
2023-06-18T13:23:16.918Z,6.10
2023-06-18T13:25:44.873Z,5.10
2023-06-18T13:28:12.307Z,5.20
2023-06-18T13:30:39.291Z,5.18
2023-06-18T13:33:06.480Z,5.43
2023-06-18T13:35:34.040Z,5.60
2023-06-18T13:38:01.029Z,4.45
2023-06-18T13:40:29.135Z,5.37
2023-06-18T13:42:56.607Z,5.13
2023-06-18T13:45:24.435Z,5.30
2023-06-18T13:47:51.542Z,4.90
2023-06-18T13:50:18.893Z,5.37
2023-06-18T13:52:45.778Z,4.53
2023-06-18T13:55:12.824Z,5.10
2023-06-18T13:57:39.891Z,4.78
2023-06-18T14:00:09.261Z,5.43
2023-06-18T14:02:41.602Z,5.10
2023-06-18T14:05:09.567Z,5.57
2023-06-18T14:07:36.808Z,5.03
2023-06-18T14:10:04.973Z,4.65
2023-06-18T14:12:31.864Z,5.33
2023-06-18T14:14:58.899Z,5.12
2023-06-18T14:17:27.181Z,5.15
2023-06-18T14:19:55.405Z,5.68
2023-06-18T14:22:22.481Z,5.45
2023-06-18T14:24:49.841Z,5.35
2023-06-18T14:27:17.228Z,5.50
2023-06-18T14:29:44.156Z,5.68
2023-06-18T14:32:11.094Z,5.53
2023-06-18T14:34:37.934Z,5.25
2023-06-18T14:37:05.222Z,5.28
2023-06-18T14:39:32.073Z,5.65
2023-06-18T14:41:58.999Z,5.95
2023-06-18T14:44:28.312Z,5.82
2023-06-18T14:46:55.380Z,5.53
2023-06-18T14:49:22.391Z,5.47
2023-06-18T14:51:49.361Z,5.53
2023-06-18T14:54:17.723Z,5.30
2023-06-18T14:56:47.862Z,5.68
2023-06-18T14:59:14.835Z,6.00
2023-06-18T15:01:41.912Z,5.22
2023-06-18T15:04:09.309Z,4.90
2023-06-18T15:06:36.956Z,5.70
2023-06-18T15:09:05.612Z,5.60
2023-06-18T15:11:33.523Z,5.07
2023-06-18T15:14:00.667Z,5.47
2023-06-18T15:16:28.017Z,5.55
2023-06-18T15:18:54.892Z,5.32
2023-06-18T15:21:21.796Z,5.30
2023-06-18T15:23:48.677Z,5.60
2023-06-18T15:26:16.489Z,5.68
2023-06-18T15:28:46.115Z,5.35
2023-06-18T15:31:13.907Z,5.78
2023-06-18T15:33:42.806Z,5.05
2023-06-18T15:36:10.044Z,5.07
2023-06-18T15:38:37.480Z,5.25
2023-06-18T15:41:05.059Z,5.40
2023-06-18T15:43:32.648Z,5.00
2023-06-18T15:45:59.767Z,5.25
2023-06-18T15:48:26.708Z,5.75
2023-06-18T15:50:53.731Z,5.90
2023-06-18T15:53:20.921Z,5.75
2023-06-18T15:55:48.677Z,5.82
2023-06-18T15:58:17.034Z,6.03
2023-06-18T16:00:43.890Z,5.65
2023-06-18T16:03:10.992Z,5.62
2023-06-18T16:05:39.906Z,5.37
2023-06-18T16:08:07.009Z,5.85
2023-06-18T16:10:36.441Z,6.10
2023-06-18T16:13:05.176Z,5.30
2023-06-18T16:15:32.062Z,6.30
2023-06-18T16:18:04.778Z,5.28
2023-06-18T16:20:33.402Z,6.72
2023-06-18T16:23:02.060Z,5.50
2023-06-18T16:25:29.060Z,5.55
2023-06-18T16:27:58.647Z,7.28
2023-06-18T16:30:27.143Z,5.53
2023-06-18T16:32:55.282Z,5.68
2023-06-18T16:35:23.406Z,5.73
2023-06-18T16:37:55.700Z,5.60
2023-06-18T16:40:24.307Z,5.93
2023-06-18T16:42:51.269Z,6.68
2023-06-18T16:45:18.352Z,6.20
2023-06-18T16:47:45.379Z,7.07
2023-06-18T16:50:13.696Z,5.93
2023-06-18T16:52:40.671Z,6.10
2023-06-18T16:55:08.335Z,5.20
2023-06-18T16:57:35.244Z,5.30
2023-06-18T17:00:02.389Z,5.53
2023-06-18T17:02:32.444Z,5.45
2023-06-18T17:04:59.597Z,6.40
2023-06-18T17:07:28.505Z,6.10
2023-06-18T17:09:55.759Z,5.62
2023-06-18T17:12:22.939Z,5.93
2023-06-18T17:14:49.774Z,6.43
2023-06-18T17:17:16.814Z,5.37
2023-06-18T17:19:43.933Z,5.87
2023-06-18T17:22:11.744Z,6.32
2023-06-18T17:24:40.348Z,5.57
2023-06-18T17:27:08.008Z,6.43
2023-06-18T17:29:34.954Z,5.35
2023-06-18T17:32:02.019Z,5.93
2023-06-18T17:34:28.959Z,5.40
2023-06-18T17:36:56.009Z,6.70
2023-06-18T17:39:24.319Z,5.85
2023-06-18T17:41:51.953Z,6.27
2023-06-18T17:44:19.659Z,5.70
2023-06-18T17:46:46.770Z,5.60
2023-06-18T17:49:14.439Z,5.85
2023-06-18T17:51:41.333Z,5.65
2023-06-18T17:54:09.102Z,6.62
2023-06-18T17:56:36.411Z,6.80
2023-06-18T17:59:03.364Z,7.78
2023-06-18T18:01:30.687Z,6.43
2023-06-18T18:03:57.932Z,6.12
2023-06-18T18:06:25.193Z,6.62
2023-06-18T18:08:52.685Z,7.87
2023-06-18T18:11:19.746Z,6.32
2023-06-18T18:13:46.726Z,6.95
2023-06-18T18:16:13.894Z,8.40
2023-06-18T18:18:40.801Z,7.07
2023-06-18T18:21:07.773Z,6.47
2023-06-18T18:23:37.060Z,6.90
2023-06-18T18:28:39.432Z,6.37
2023-06-18T18:31:06.735Z,5.93
2023-06-18T18:33:34.260Z,6.15
2023-06-18T18:36:01.394Z,6.72
2023-06-18T18:38:28.362Z,6.37
2023-06-18T18:40:55.276Z,7.03
2023-06-18T18:43:22.148Z,5.85
2023-06-18T18:45:49.096Z,5.87
2023-06-18T18:48:16.547Z,5.43
2023-06-18T18:50:43.505Z,6.80
2023-06-18T18:53:10.342Z,5.53
2023-06-18T18:55:37.769Z,5.97
2023-06-18T18:58:04.641Z,5.93
2023-06-18T19:00:32.095Z,6.30
2023-06-18T19:02:59.128Z,5.82
2023-06-18T19:05:26.178Z,6.80
2023-06-18T19:07:53.031Z,7.10
2023-06-18T19:10:19.924Z,6.40
2023-06-18T19:12:52.227Z,8.68
2023-06-18T19:15:19.470Z,7.20
2023-06-18T19:17:46.878Z,6.85
2023-06-18T19:20:14.352Z,6.72
2023-06-18T19:22:41.272Z,6.57
2023-06-18T19:25:08.633Z,6.40
2023-06-18T19:27:35.519Z,6.90
2023-06-18T19:30:02.933Z,6.78
2023-06-18T19:32:30.020Z,6.57
2023-06-18T19:34:56.951Z,7.05
2023-06-18T19:37:23.948Z,7.15
2023-06-18T19:39:50.860Z,5.90
2023-06-18T19:42:18.055Z,7.20
2023-06-18T19:44:45.908Z,5.75
2023-06-18T19:47:13.356Z,5.72
2023-06-18T19:49:40.290Z,6.82
2023-06-18T19:52:07.426Z,7.00
2023-06-18T19:54:35.653Z,6.75
2023-06-18T19:57:02.558Z,6.78
2023-06-18T19:59:29.572Z,6.25
2023-06-18T20:01:56.461Z,6.95
2023-06-18T20:04:23.396Z,6.72
2023-06-18T20:06:50.333Z,7.78
2023-06-18T20:09:17.257Z,7.03
2023-06-18T20:11:44.279Z,7.00
2023-06-18T20:14:13.267Z,7.57
2023-06-18T20:16:40.306Z,8.05
2023-06-18T20:19:07.229Z,7.93
2023-06-18T20:21:34.175Z,8.07
2023-06-18T20:24:01.938Z,8.05
2023-06-18T20:26:28.883Z,6.78
2023-06-18T20:28:55.818Z,6.93
2023-06-18T20:31:22.763Z,7.30
2023-06-18T20:33:49.639Z,6.62
2023-06-18T20:36:17.609Z,7.43
2023-06-18T20:38:44.477Z,6.93
2023-06-18T20:41:12.208Z,6.78
2023-06-18T20:43:39.078Z,7.37
2023-06-18T20:46:06.184Z,7.30
2023-06-18T20:48:33.964Z,6.95
2023-06-18T20:51:05.074Z,6.85
2023-06-18T20:53:33.158Z,6.62
2023-06-18T20:56:01.253Z,7.30
2023-06-18T20:58:28.241Z,6.95
2023-06-18T21:00:55.291Z,6.87
2023-06-18T21:03:25.123Z,7.37
2023-06-18T21:05:52.051Z,6.72
2023-06-18T21:08:19.968Z,6.50
2023-06-18T21:10:47.185Z,7.47
2023-06-18T21:13:14.178Z,6.70
2023-06-18T21:15:41.123Z,7.18
2023-06-18T21:18:08.397Z,7.20
2023-06-18T21:20:35.445Z,6.12
2023-06-18T21:23:02.390Z,6.53
2023-06-18T21:25:29.316Z,7.68
2023-06-18T21:27:57.329Z,7.37
2023-06-18T21:30:25.859Z,7.03
2023-06-18T21:32:54.049Z,7.60
2023-06-18T21:35:21.556Z,6.95
2023-06-18T21:37:49.506Z,7.43
2023-06-18T21:40:17.330Z,6.95
2023-06-18T21:42:45.078Z,6.97
2023-06-18T21:45:13.410Z,7.82
2023-06-18T21:47:41.075Z,7.22
2023-06-18T21:50:11.437Z,7.30
2023-06-18T21:52:38.421Z,6.53
2023-06-18T21:55:05.876Z,6.80
2023-06-18T21:57:32.765Z,6.90
2023-06-18T21:59:59.950Z,7.80
2023-06-18T22:02:27.335Z,7.07
2023-06-18T22:04:54.323Z,6.65
2023-06-18T22:07:21.220Z,7.20
2023-06-18T22:09:48.179Z,7.95
2023-06-18T22:12:15.059Z,7.70
2023-06-18T22:14:41.960Z,7.60
2023-06-18T22:17:13.881Z,7.90
2023-06-18T22:19:40.872Z,7.70
2023-06-18T22:22:07.715Z,7.65
2023-06-18T22:24:34.655Z,8.00
2023-06-18T22:27:01.892Z,8.02
2023-06-18T22:29:28.818Z,7.85
2023-06-18T22:31:55.740Z,7.20
2023-06-18T22:34:36.570Z,7.93
2023-06-18T22:37:07.848Z,8.05
2023-06-18T22:39:34.756Z,7.82
2023-06-18T22:42:03.258Z,8.38
2023-06-18T22:44:30.147Z,8.57
2023-06-18T22:46:57.196Z,7.55
2023-06-18T22:49:24.193Z,7.62
2023-06-18T22:51:58.911Z,6.95
2023-06-18T22:54:27.003Z,7.75
2023-06-18T22:56:54.385Z,8.32
2023-06-18T22:59:21.374Z,8.80
2023-06-18T23:01:48.689Z,8.52
2023-06-18T23:04:15.846Z,8.65
2023-06-18T23:06:42.932Z,7.45
2023-06-18T23:09:09.874Z,8.27
2023-06-18T23:11:36.798Z,7.82
2023-06-18T23:14:04.438Z,7.68
2023-06-18T23:16:31.306Z,6.87
2023-06-18T23:18:58.997Z,7.95
2023-06-18T23:21:35.134Z,7.95
2023-06-18T23:24:13.047Z,6.70
2023-06-18T23:26:40.494Z,8.75
2023-06-18T23:29:11.282Z,7.93
2023-06-18T23:31:38.593Z,7.47
2023-06-18T23:34:07.588Z,6.75
2023-06-18T23:36:36.535Z,7.10
2023-06-18T23:39:04.545Z,6.80
2023-06-18T23:41:31.422Z,6.82
2023-06-18T23:43:58.284Z,7.00
2023-06-18T23:46:25.348Z,7.43
2023-06-18T23:48:52.321Z,7.37
2023-06-18T23:51:19.212Z,6.57
2023-06-18T23:53:48.529Z,8.52
2023-06-18T23:56:15.857Z,7.47
2023-06-18T23:58:42.803Z,6.68
